Tokyo, Japan
Current Conditions -  °F | °C
As of 12:30 AM on Thursday 23 Oct 2014 (Local Time) from RJTT Reporting Station
Rain Showers Rain Showers  
Wind Chill: 14°   Ceiling: 6000
Heat Index: 14°   Visibility: 6mi
Dew Point: 13°   Wind: 21mph
Humidity: 94%   Direction: 30°NNE
Pressure: 29.94"   Gusts: NA
Location:  35.67°N, 139.77°E
Report Text: RJTT 221530Z 03018KT 9999 -SHRA SCT010 BKN060 BKN070 14/13 Q1014 TEMPO FEW006 BKN012 RMK 4CU010 5SC060 7AC070 A2996
Loading
Personal Weather Stations






























Interactive Weather Map New forecast layout! Learn more

10-Day Weather Forecast

Advertisements
Track Severe Weather on mobile